sensor_id;sensor_type;location;lat;lon;timestamp;P1;durP1;ratioP1;P2;durP2;ratioP2
45842;SDS011;31563;51.744;8.252;2023-05-29T00:01:24;4.13;;;2.08;;
45842;SDS011;31563;51.744;8.252;2023-05-29T00:03:52;8.05;;;2.72;;
45842;SDS011;31563;51.744;8.252;2023-05-29T00:06:21;4.35;;;2.40;;
45842;SDS011;31563;51.744;8.252;2023-05-29T00:08:50;5.70;;;2.45;;
45842;SDS011;31563;51.744;8.252;2023-05-29T00:11:19;3.75;;;2.05;;
45842;SDS011;31563;51.744;8.252;2023-05-29T00:16:16;5.45;;;2.40;;
45842;SDS011;31563;51.744;8.252;2023-05-29T00:18:45;6.75;;;2.53;;
45842;SDS011;31563;51.744;8.252;2023-05-29T00:21:13;5.30;;;2.45;;
45842;SDS011;31563;51.744;8.252;2023-05-29T00:23:42;3.17;;;1.80;;
45842;SDS011;31563;51.744;8.252;2023-05-29T00:26:11;6.43;;;2.45;;
45842;SDS011;31563;51.744;8.252;2023-05-29T00:28:44;3.30;;;1.88;;
45842;SDS011;31563;51.744;8.252;2023-05-29T00:31:12;4.30;;;2.20;;
45842;SDS011;31563;51.744;8.252;2023-05-29T00:33:41;4.03;;;2.40;;
45842;SDS011;31563;51.744;8.252;2023-05-29T00:36:09;4.95;;;2.20;;
45842;SDS011;31563;51.744;8.252;2023-05-29T00:38:38;5.10;;;2.22;;
45842;SDS011;31563;51.744;8.252;2023-05-29T00:41:06;5.00;;;2.35;;
45842;SDS011;31563;51.744;8.252;2023-05-29T00:43:34;3.50;;;1.77;;
45842;SDS011;31563;51.744;8.252;2023-05-29T00:46:04;4.68;;;1.98;;
45842;SDS011;31563;51.744;8.252;2023-05-29T00:51:00;6.20;;;2.38;;
45842;SDS011;31563;51.744;8.252;2023-05-29T00:53:29;4.32;;;1.92;;
45842;SDS011;31563;51.744;8.252;2023-05-29T00:55:57;4.40;;;1.95;;
45842;SDS011;31563;51.744;8.252;2023-05-29T00:58:27;4.68;;;1.85;;
45842;SDS011;31563;51.744;8.252;2023-05-29T01:00:55;4.72;;;2.28;;
45842;SDS011;31563;51.744;8.252;2023-05-29T01:03:26;4.13;;;1.97;;
45842;SDS011;31563;51.744;8.252;2023-05-29T01:05:54;4.60;;;2.28;;
45842;SDS011;31563;51.744;8.252;2023-05-29T01:08:24;5.00;;;1.80;;
45842;SDS011;31563;51.744;8.252;2023-05-29T01:10:53;4.68;;;2.00;;
45842;SDS011;31563;51.744;8.252;2023-05-29T01:13:39;5.05;;;2.45;;
45842;SDS011;31563;51.744;8.252;2023-05-29T01:16:11;6.05;;;2.58;;
45842;SDS011;31563;51.744;8.252;2023-05-29T01:18:47;5.15;;;2.17;;
45842;SDS011;31563;51.744;8.252;2023-05-29T01:21:23;4.35;;;1.98;;
45842;SDS011;31563;51.744;8.252;2023-05-29T01:24:03;6.40;;;2.50;;
45842;SDS011;31563;51.744;8.252;2023-05-29T01:26:45;6.55;;;2.20;;
45842;SDS011;31563;51.744;8.252;2023-05-29T01:29:17;5.35;;;2.22;;
45842;SDS011;31563;51.744;8.252;2023-05-29T01:31:47;5.78;;;2.05;;
45842;SDS011;31563;51.744;8.252;2023-05-29T01:34:17;4.88;;;2.42;;
45842;SDS011;31563;51.744;8.252;2023-05-29T01:36:45;4.53;;;2.28;;
45842;SDS011;31563;51.744;8.252;2023-05-29T01:39:13;4.32;;;1.90;;
45842;SDS011;31563;51.744;8.252;2023-05-29T01:41:42;5.25;;;2.42;;
45842;SDS011;31563;51.744;8.252;2023-05-29T01:44:13;5.50;;;2.08;;
45842;SDS011;31563;51.744;8.252;2023-05-29T01:46:42;5.85;;;2.20;;
45842;SDS011;31563;51.744;8.252;2023-05-29T01:49:12;5.38;;;2.03;;
45842;SDS011;31563;51.744;8.252;2023-05-29T01:51:41;5.22;;;2.20;;
45842;SDS011;31563;51.744;8.252;2023-05-29T01:54:09;5.50;;;2.35;;
45842;SDS011;31563;51.744;8.252;2023-05-29T01:56:38;7.07;;;2.53;;
45842;SDS011;31563;51.744;8.252;2023-05-29T01:59:08;5.35;;;2.10;;
45842;SDS011;31563;51.744;8.252;2023-05-29T02:01:38;6.80;;;2.22;;
45842;SDS011;31563;51.744;8.252;2023-05-29T02:04:07;5.90;;;2.63;;
45842;SDS011;31563;51.744;8.252;2023-05-29T02:06:35;4.80;;;2.40;;
45842;SDS011;31563;51.744;8.252;2023-05-29T02:09:03;4.57;;;2.08;;
45842;SDS011;31563;51.744;8.252;2023-05-29T02:11:32;6.00;;;2.55;;
45842;SDS011;31563;51.744;8.252;2023-05-29T02:14:00;6.18;;;2.60;;
45842;SDS011;31563;51.744;8.252;2023-05-29T02:16:31;7.68;;;2.40;;
45842;SDS011;31563;51.744;8.252;2023-05-29T02:19:00;6.50;;;2.85;;
45842;SDS011;31563;51.744;8.252;2023-05-29T02:21:30;6.40;;;3.00;;
45842;SDS011;31563;51.744;8.252;2023-05-29T02:23:58;6.28;;;2.35;;
45842;SDS011;31563;51.744;8.252;2023-05-29T02:26:27;5.75;;;2.70;;
45842;SDS011;31563;51.744;8.252;2023-05-29T02:28:55;4.85;;;2.45;;
45842;SDS011;31563;51.744;8.252;2023-05-29T02:31:23;7.43;;;2.70;;
45842;SDS011;31563;51.744;8.252;2023-05-29T02:33:53;5.18;;;2.30;;
45842;SDS011;31563;51.744;8.252;2023-05-29T02:36:21;7.55;;;2.70;;
45842;SDS011;31563;51.744;8.252;2023-05-29T02:38:49;11.30;;;3.00;;
45842;SDS011;31563;51.744;8.252;2023-05-29T02:41:18;7.93;;;2.95;;
45842;SDS011;31563;51.744;8.252;2023-05-29T02:43:47;8.27;;;2.80;;
45842;SDS011;31563;51.744;8.252;2023-05-29T02:46:15;7.93;;;2.17;;
45842;SDS011;31563;51.744;8.252;2023-05-29T02:48:43;5.13;;;2.50;;
45842;SDS011;31563;51.744;8.252;2023-05-29T02:51:13;7.47;;;2.63;;
45842;SDS011;31563;51.744;8.252;2023-05-29T02:53:41;7.07;;;2.58;;
45842;SDS011;31563;51.744;8.252;2023-05-29T02:56:10;8.55;;;2.78;;
45842;SDS011;31563;51.744;8.252;2023-05-29T02:58:38;7.63;;;2.67;;
45842;SDS011;31563;51.744;8.252;2023-05-29T03:01:06;9.25;;;3.22;;
45842;SDS011;31563;51.744;8.252;2023-05-29T03:03:35;8.55;;;2.67;;
45842;SDS011;31563;51.744;8.252;2023-05-29T03:06:03;7.05;;;2.65;;
45842;SDS011;31563;51.744;8.252;2023-05-29T03:08:34;9.40;;;3.13;;
45842;SDS011;31563;51.744;8.252;2023-05-29T03:11:06;7.78;;;3.00;;
45842;SDS011;31563;51.744;8.252;2023-05-29T03:13:35;7.10;;;2.92;;
45842;SDS011;31563;51.744;8.252;2023-05-29T03:16:03;7.28;;;2.70;;
45842;SDS011;31563;51.744;8.252;2023-05-29T03:18:32;8.52;;;2.75;;
45842;SDS011;31563;51.744;8.252;2023-05-29T03:21:00;7.28;;;2.85;;
45842;SDS011;31563;51.744;8.252;2023-05-29T03:23:29;6.20;;;2.63;;
45842;SDS011;31563;51.744;8.252;2023-05-29T03:25:59;9.20;;;2.63;;
45842;SDS011;31563;51.744;8.252;2023-05-29T03:28:27;7.65;;;2.78;;
45842;SDS011;31563;51.744;8.252;2023-05-29T03:30:56;6.18;;;2.17;;
45842;SDS011;31563;51.744;8.252;2023-05-29T03:33:24;7.47;;;2.75;;
45842;SDS011;31563;51.744;8.252;2023-05-29T03:35:52;6.18;;;2.50;;
45842;SDS011;31563;51.744;8.252;2023-05-29T03:38:21;8.00;;;2.70;;
45842;SDS011;31563;51.744;8.252;2023-05-29T03:40:50;7.38;;;2.30;;
45842;SDS011;31563;51.744;8.252;2023-05-29T03:43:20;8.88;;;2.80;;
45842;SDS011;31563;51.744;8.252;2023-05-29T03:45:48;6.50;;;2.78;;
45842;SDS011;31563;51.744;8.252;2023-05-29T03:48:16;8.00;;;2.88;;
45842;SDS011;31563;51.744;8.252;2023-05-29T03:50:45;5.93;;;2.38;;
45842;SDS011;31563;51.744;8.252;2023-05-29T03:53:14;9.05;;;2.67;;
45842;SDS011;31563;51.744;8.252;2023-05-29T03:55:42;7.38;;;2.30;;
45842;SDS011;31563;51.744;8.252;2023-05-29T03:58:11;6.13;;;2.45;;
45842;SDS011;31563;51.744;8.252;2023-05-29T04:00:41;4.00;;;1.98;;
45842;SDS011;31563;51.744;8.252;2023-05-29T04:03:10;6.93;;;2.38;;
45842;SDS011;31563;51.744;8.252;2023-05-29T04:05:38;6.50;;;2.33;;
45842;SDS011;31563;51.744;8.252;2023-05-29T04:08:07;9.45;;;2.72;;
45842;SDS011;31563;51.744;8.252;2023-05-29T04:10:41;6.63;;;2.22;;
45842;SDS011;31563;51.744;8.252;2023-05-29T04:13:10;7.78;;;2.20;;
45842;SDS011;31563;51.744;8.252;2023-05-29T04:15:38;8.40;;;2.90;;
45842;SDS011;31563;51.744;8.252;2023-05-29T04:18:09;6.75;;;2.33;;
45842;SDS011;31563;51.744;8.252;2023-05-29T04:20:38;6.57;;;1.85;;
45842;SDS011;31563;51.744;8.252;2023-05-29T04:23:06;6.32;;;2.08;;
45842;SDS011;31563;51.744;8.252;2023-05-29T04:25:35;6.93;;;2.53;;
45842;SDS011;31563;51.744;8.252;2023-05-29T04:28:03;6.65;;;2.45;;
45842;SDS011;31563;51.744;8.252;2023-05-29T04:30:31;6.57;;;2.15;;
45842;SDS011;31563;51.744;8.252;2023-05-29T04:33:00;7.18;;;2.38;;
45842;SDS011;31563;51.744;8.252;2023-05-29T04:35:30;9.13;;;2.47;;
45842;SDS011;31563;51.744;8.252;2023-05-29T04:37:59;8.60;;;2.40;;
45842;SDS011;31563;51.744;8.252;2023-05-29T04:40:27;8.52;;;2.85;;
45842;SDS011;31563;51.744;8.252;2023-05-29T04:42:55;9.02;;;2.35;;
45842;SDS011;31563;51.744;8.252;2023-05-29T04:45:27;7.70;;;2.30;;
45842;SDS011;31563;51.744;8.252;2023-05-29T04:47:55;9.82;;;2.60;;
45842;SDS011;31563;51.744;8.252;2023-05-29T04:50:24;8.40;;;2.60;;
45842;SDS011;31563;51.744;8.252;2023-05-29T04:52:57;8.68;;;3.00;;
45842;SDS011;31563;51.744;8.252;2023-05-29T04:55:25;10.30;;;3.10;;
45842;SDS011;31563;51.744;8.252;2023-05-29T04:57:54;7.55;;;2.83;;
45842;SDS011;31563;51.744;8.252;2023-05-29T05:00:22;9.00;;;2.38;;
45842;SDS011;31563;51.744;8.252;2023-05-29T05:02:51;6.35;;;2.35;;
45842;SDS011;31563;51.744;8.252;2023-05-29T05:05:20;8.85;;;2.30;;
45842;SDS011;31563;51.744;8.252;2023-05-29T05:07:48;7.20;;;2.40;;
45842;SDS011;31563;51.744;8.252;2023-05-29T05:10:18;7.18;;;2.35;;
45842;SDS011;31563;51.744;8.252;2023-05-29T05:12:46;9.18;;;2.75;;
45842;SDS011;31563;51.744;8.252;2023-05-29T05:15:14;7.50;;;2.30;;
45842;SDS011;31563;51.744;8.252;2023-05-29T05:17:43;7.60;;;2.10;;
45842;SDS011;31563;51.744;8.252;2023-05-29T05:20:11;6.70;;;2.40;;
45842;SDS011;31563;51.744;8.252;2023-05-29T05:22:40;6.72;;;2.00;;
45842;SDS011;31563;51.744;8.252;2023-05-29T05:25:08;7.30;;;2.20;;
45842;SDS011;31563;51.744;8.252;2023-05-29T05:27:39;9.67;;;2.83;;
45842;SDS011;31563;51.744;8.252;2023-05-29T05:30:07;5.63;;;1.98;;
45842;SDS011;31563;51.744;8.252;2023-05-29T05:32:36;8.82;;;2.83;;
45842;SDS011;31563;51.744;8.252;2023-05-29T05:35:05;7.30;;;2.35;;
45842;SDS011;31563;51.744;8.252;2023-05-29T05:37:34;7.13;;;2.58;;
45842;SDS011;31563;51.744;8.252;2023-05-29T05:40:03;8.88;;;2.30;;
45842;SDS011;31563;51.744;8.252;2023-05-29T05:42:32;7.55;;;2.20;;
45842;SDS011;31563;51.744;8.252;2023-05-29T05:45:03;9.23;;;2.97;;
45842;SDS011;31563;51.744;8.252;2023-05-29T05:47:32;8.27;;;2.83;;
45842;SDS011;31563;51.744;8.252;2023-05-29T05:50:01;10.77;;;2.75;;
45842;SDS011;31563;51.744;8.252;2023-05-29T05:52:30;9.43;;;2.40;;
45842;SDS011;31563;51.744;8.252;2023-05-29T05:57:28;10.57;;;2.67;;
45842;SDS011;31563;51.744;8.252;2023-05-29T05:59:58;10.20;;;2.60;;
45842;SDS011;31563;51.744;8.252;2023-05-29T06:02:28;8.80;;;3.03;;
45842;SDS011;31563;51.744;8.252;2023-05-29T06:04:56;12.23;;;3.05;;
45842;SDS011;31563;51.744;8.252;2023-05-29T06:07:25;9.45;;;2.65;;
45842;SDS011;31563;51.744;8.252;2023-05-29T06:09:53;7.60;;;2.20;;
45842;SDS011;31563;51.744;8.252;2023-05-29T06:12:22;8.05;;;2.45;;
45842;SDS011;31563;51.744;8.252;2023-05-29T06:14:50;8.40;;;2.45;;
45842;SDS011;31563;51.744;8.252;2023-05-29T06:17:18;9.98;;;2.72;;
45842;SDS011;31563;51.744;8.252;2023-05-29T06:19:50;8.20;;;2.08;;
45842;SDS011;31563;51.744;8.252;2023-05-29T06:22:18;11.73;;;3.25;;
45842;SDS011;31563;51.744;8.252;2023-05-29T06:24:47;10.27;;;2.07;;
45842;SDS011;31563;51.744;8.252;2023-05-29T06:27:15;9.07;;;2.50;;
45842;SDS011;31563;51.744;8.252;2023-05-29T06:29:44;9.45;;;2.80;;
45842;SDS011;31563;51.744;8.252;2023-05-29T06:32:12;9.45;;;3.00;;
45842;SDS011;31563;51.744;8.252;2023-05-29T06:34:45;8.23;;;2.38;;
45842;SDS011;31563;51.744;8.252;2023-05-29T06:37:15;7.68;;;2.53;;
45842;SDS011;31563;51.744;8.252;2023-05-29T06:39:44;8.13;;;2.25;;
45842;SDS011;31563;51.744;8.252;2023-05-29T06:42:15;8.98;;;2.35;;
45842;SDS011;31563;51.744;8.252;2023-05-29T06:44:43;8.38;;;2.60;;
45842;SDS011;31563;51.744;8.252;2023-05-29T06:47:14;9.68;;;2.53;;
45842;SDS011;31563;51.744;8.252;2023-05-29T06:49:42;6.78;;;2.22;;
45842;SDS011;31563;51.744;8.252;2023-05-29T06:52:11;9.60;;;3.08;;
45842;SDS011;31563;51.744;8.252;2023-05-29T06:54:41;8.95;;;2.45;;
45842;SDS011;31563;51.744;8.252;2023-05-29T06:57:12;7.45;;;2.67;;
45842;SDS011;31563;51.744;8.252;2023-05-29T06:59:41;8.80;;;2.30;;
45842;SDS011;31563;51.744;8.252;2023-05-29T07:02:09;9.32;;;3.03;;
45842;SDS011;31563;51.744;8.252;2023-05-29T07:04:37;7.38;;;2.50;;
45842;SDS011;31563;51.744;8.252;2023-05-29T07:07:06;8.52;;;2.78;;
45842;SDS011;31563;51.744;8.252;2023-05-29T07:09:34;8.55;;;2.22;;
45842;SDS011;31563;51.744;8.252;2023-05-29T07:12:04;8.55;;;2.88;;
45842;SDS011;31563;51.744;8.252;2023-05-29T07:14:33;7.95;;;2.08;;
45842;SDS011;31563;51.744;8.252;2023-05-29T07:17:01;6.72;;;2.45;;
45842;SDS011;31563;51.744;8.252;2023-05-29T07:19:29;7.53;;;2.60;;
45842;SDS011;31563;51.744;8.252;2023-05-29T07:21:58;7.05;;;2.53;;
45842;SDS011;31563;51.744;8.252;2023-05-29T07:24:27;7.57;;;2.15;;
45842;SDS011;31563;51.744;8.252;2023-05-29T07:26:58;7.53;;;2.58;;
45842;SDS011;31563;51.744;8.252;2023-05-29T07:29:27;8.55;;;2.50;;
45842;SDS011;31563;51.744;8.252;2023-05-29T07:31:56;7.32;;;2.35;;
45842;SDS011;31563;51.744;8.252;2023-05-29T07:34:24;6.45;;;2.10;;
45842;SDS011;31563;51.744;8.252;2023-05-29T07:36:56;8.32;;;2.67;;
45842;SDS011;31563;51.744;8.252;2023-05-29T07:39:27;9.38;;;2.92;;
45842;SDS011;31563;51.744;8.252;2023-05-29T07:41:55;8.35;;;2.30;;
45842;SDS011;31563;51.744;8.252;2023-05-29T07:44:23;9.30;;;2.67;;
45842;SDS011;31563;51.744;8.252;2023-05-29T07:46:53;10.38;;;2.80;;
45842;SDS011;31563;51.744;8.252;2023-05-29T07:49:21;11.23;;;2.92;;
45842;SDS011;31563;51.744;8.252;2023-05-29T07:51:50;7.88;;;2.40;;
45842;SDS011;31563;51.744;8.252;2023-05-29T07:54:18;9.90;;;2.85;;
45842;SDS011;31563;51.744;8.252;2023-05-29T07:56:47;7.45;;;2.65;;
45842;SDS011;31563;51.744;8.252;2023-05-29T07:59:16;8.80;;;1.88;;
45842;SDS011;31563;51.744;8.252;2023-05-29T08:01:44;9.43;;;2.65;;
45842;SDS011;31563;51.744;8.252;2023-05-29T08:04:15;9.43;;;3.00;;
45842;SDS011;31563;51.744;8.252;2023-05-29T08:06:43;6.32;;;2.05;;
45842;SDS011;31563;51.744;8.252;2023-05-29T08:09:11;7.53;;;2.30;;
45842;SDS011;31563;51.744;8.252;2023-05-29T08:11:40;7.63;;;2.72;;
45842;SDS011;31563;51.744;8.252;2023-05-29T08:14:11;6.88;;;2.20;;
45842;SDS011;31563;51.744;8.252;2023-05-29T08:16:39;11.45;;;2.88;;
45842;SDS011;31563;51.744;8.252;2023-05-29T08:19:08;8.30;;;2.50;;
45842;SDS011;31563;51.744;8.252;2023-05-29T08:24:07;7.93;;;1.95;;
45842;SDS011;31563;51.744;8.252;2023-05-29T08:26:35;8.25;;;2.40;;
45842;SDS011;31563;51.744;8.252;2023-05-29T08:29:04;6.40;;;2.00;;
45842;SDS011;31563;51.744;8.252;2023-05-29T08:31:32;8.50;;;2.22;;
45842;SDS011;31563;51.744;8.252;2023-05-29T08:34:01;8.70;;;2.90;;
45842;SDS011;31563;51.744;8.252;2023-05-29T08:36:29;8.00;;;2.03;;
45842;SDS011;31563;51.744;8.252;2023-05-29T08:38:59;6.28;;;1.95;;
45842;SDS011;31563;51.744;8.252;2023-05-29T08:43:56;7.43;;;2.47;;
45842;SDS011;31563;51.744;8.252;2023-05-29T08:46:27;6.53;;;1.90;;
45842;SDS011;31563;51.744;8.252;2023-05-29T08:48:57;8.82;;;2.47;;
45842;SDS011;31563;51.744;8.252;2023-05-29T08:51:27;13.48;;;2.97;;
45842;SDS011;31563;51.744;8.252;2023-05-29T08:54:00;11.82;;;2.30;;
45842;SDS011;31563;51.744;8.252;2023-05-29T08:56:29;6.72;;;2.17;;
45842;SDS011;31563;51.744;8.252;2023-05-29T08:59:00;9.63;;;2.30;;
45842;SDS011;31563;51.744;8.252;2023-05-29T09:01:33;11.82;;;2.75;;
45842;SDS011;31563;51.744;8.252;2023-05-29T09:04:03;12.88;;;2.58;;
45842;SDS011;31563;51.744;8.252;2023-05-29T09:06:31;11.07;;;2.50;;
45842;SDS011;31563;51.744;8.252;2023-05-29T09:09:01;10.52;;;2.15;;
45842;SDS011;31563;51.744;8.252;2023-05-29T09:11:30;10.80;;;2.65;;
45842;SDS011;31563;51.744;8.252;2023-05-29T09:13:59;8.73;;;2.55;;
45842;SDS011;31563;51.744;8.252;2023-05-29T09:16:29;10.65;;;2.42;;
45842;SDS011;31563;51.744;8.252;2023-05-29T09:19:04;6.90;;;2.20;;
45842;SDS011;31563;51.744;8.252;2023-05-29T09:21:33;7.25;;;2.15;;
45842;SDS011;31563;51.744;8.252;2023-05-29T09:24:04;8.63;;;2.13;;
45842;SDS011;31563;51.744;8.252;2023-05-29T09:26:32;8.30;;;2.70;;
45842;SDS011;31563;51.744;8.252;2023-05-29T09:29:01;7.70;;;2.53;;
45842;SDS011;31563;51.744;8.252;2023-05-29T09:31:30;7.93;;;2.20;;
45842;SDS011;31563;51.744;8.252;2023-05-29T09:34:00;9.15;;;2.75;;
45842;SDS011;31563;51.744;8.252;2023-05-29T09:36:30;9.90;;;2.20;;
45842;SDS011;31563;51.744;8.252;2023-05-29T09:39:01;7.38;;;2.75;;
45842;SDS011;31563;51.744;8.252;2023-05-29T09:41:43;8.13;;;2.33;;
45842;SDS011;31563;51.744;8.252;2023-05-29T09:44:12;7.33;;;1.83;;
45842;SDS011;31563;51.744;8.252;2023-05-29T09:46:41;9.03;;;2.40;;
45842;SDS011;31563;51.744;8.252;2023-05-29T09:49:12;7.53;;;2.15;;
45842;SDS011;31563;51.744;8.252;2023-05-29T09:51:43;7.32;;;2.25;;
45842;SDS011;31563;51.744;8.252;2023-05-29T09:54:17;5.57;;;2.17;;
45842;SDS011;31563;51.744;8.252;2023-05-29T09:56:46;7.72;;;2.22;;
45842;SDS011;31563;51.744;8.252;2023-05-29T09:59:15;8.18;;;2.13;;
45842;SDS011;31563;51.744;8.252;2023-05-29T10:01:47;6.35;;;2.22;;
45842;SDS011;31563;51.744;8.252;2023-05-29T10:04:17;6.55;;;2.10;;
45842;SDS011;31563;51.744;8.252;2023-05-29T10:06:45;6.93;;;2.35;;
45842;SDS011;31563;51.744;8.252;2023-05-29T10:09:17;8.85;;;2.42;;
45842;SDS011;31563;51.744;8.252;2023-05-29T10:11:48;8.27;;;2.53;;
45842;SDS011;31563;51.744;8.252;2023-05-29T10:14:18;6.35;;;2.05;;
45842;SDS011;31563;51.744;8.252;2023-05-29T10:16:47;7.95;;;2.47;;
45842;SDS011;31563;51.744;8.252;2023-05-29T10:19:19;8.45;;;1.98;;
45842;SDS011;31563;51.744;8.252;2023-05-29T10:21:52;5.45;;;1.80;;
45842;SDS011;31563;51.744;8.252;2023-05-29T10:24:24;6.80;;;2.05;;
45842;SDS011;31563;51.744;8.252;2023-05-29T10:26:53;6.88;;;2.08;;
45842;SDS011;31563;51.744;8.252;2023-05-29T10:29:25;5.93;;;2.30;;
45842;SDS011;31563;51.744;8.252;2023-05-29T10:32:02;8.65;;;2.20;;
45842;SDS011;31563;51.744;8.252;2023-05-29T10:34:39;9.40;;;2.17;;
45842;SDS011;31563;51.744;8.252;2023-05-29T10:37:15;8.82;;;2.00;;
45842;SDS011;31563;51.744;8.252;2023-05-29T10:39:50;8.90;;;2.10;;
45842;SDS011;31563;51.744;8.252;2023-05-29T10:51:08;5.55;;;1.80;;
45842;SDS011;31563;51.744;8.252;2023-05-29T10:53:51;5.35;;;2.05;;
45842;SDS011;31563;51.744;8.252;2023-05-29T10:56:22;6.18;;;1.80;;
45842;SDS011;31563;51.744;8.252;2023-05-29T10:58:56;4.68;;;1.50;;
45842;SDS011;31563;51.744;8.252;2023-05-29T11:01:30;6.15;;;1.90;;
45842;SDS011;31563;51.744;8.252;2023-05-29T11:09:27;5.45;;;2.00;;
45842;SDS011;31563;51.744;8.252;2023-05-29T11:12:10;6.00;;;1.52;;
45842;SDS011;31563;51.744;8.252;2023-05-29T11:14:46;4.32;;;1.55;;
45842;SDS011;31563;51.744;8.252;2023-05-29T11:17:28;5.45;;;1.60;;
45842;SDS011;31563;51.744;8.252;2023-05-29T11:19:57;5.53;;;1.70;;
45842;SDS011;31563;51.744;8.252;2023-05-29T11:22:34;5.78;;;1.88;;
45842;SDS011;31563;51.744;8.252;2023-05-29T11:25:23;3.53;;;1.17;;
45842;SDS011;31563;51.744;8.252;2023-05-29T11:27:53;5.30;;;1.57;;
45842;SDS011;31563;51.744;8.252;2023-05-29T11:30:22;4.72;;;1.20;;
45842;SDS011;31563;51.744;8.252;2023-05-29T11:32:50;4.47;;;1.23;;
45842;SDS011;31563;51.744;8.252;2023-05-29T11:35:21;3.60;;;1.27;;
45842;SDS011;31563;51.744;8.252;2023-05-29T11:37:49;4.75;;;1.23;;
45842;SDS011;31563;51.744;8.252;2023-05-29T11:40:18;4.50;;;1.20;;
45842;SDS011;31563;51.744;8.252;2023-05-29T11:42:46;4.30;;;1.27;;
45842;SDS011;31563;51.744;8.252;2023-05-29T11:45:17;5.05;;;1.52;;
45842;SDS011;31563;51.744;8.252;2023-05-29T11:47:53;4.65;;;1.52;;
45842;SDS011;31563;51.744;8.252;2023-05-29T11:50:22;7.07;;;1.30;;
45842;SDS011;31563;51.744;8.252;2023-05-29T11:52:52;3.97;;;1.42;;
45842;SDS011;31563;51.744;8.252;2023-05-29T11:55:20;8.15;;;1.83;;
45842;SDS011;31563;51.744;8.252;2023-05-29T12:00:19;4.63;;;1.93;;
45842;SDS011;31563;51.744;8.252;2023-05-29T12:02:48;4.97;;;1.60;;
45842;SDS011;31563;51.744;8.252;2023-05-29T12:05:17;5.60;;;2.07;;
45842;SDS011;31563;51.744;8.252;2023-05-29T12:07:49;4.63;;;1.48;;
45842;SDS011;31563;51.744;8.252;2023-05-29T12:10:19;7.40;;;1.73;;
45842;SDS011;31563;51.744;8.252;2023-05-29T12:12:48;5.13;;;1.65;;
45842;SDS011;31563;51.744;8.252;2023-05-29T12:15:18;5.43;;;1.88;;
45842;SDS011;31563;51.744;8.252;2023-05-29T12:17:48;6.35;;;2.10;;
45842;SDS011;31563;51.744;8.252;2023-05-29T12:20:18;6.38;;;1.80;;
45842;SDS011;31563;51.744;8.252;2023-05-29T12:22:47;8.48;;;2.45;;
45842;SDS011;31563;51.744;8.252;2023-05-29T12:25:16;5.80;;;1.73;;
45842;SDS011;31563;51.744;8.252;2023-05-29T12:27:46;6.07;;;1.88;;
45842;SDS011;31563;51.744;8.252;2023-05-29T12:30:20;6.28;;;1.67;;
45842;SDS011;31563;51.744;8.252;2023-05-29T12:32:59;5.78;;;1.80;;
45842;SDS011;31563;51.744;8.252;2023-05-29T12:35:29;10.85;;;1.83;;
45842;SDS011;31563;51.744;8.252;2023-05-29T12:37:58;4.65;;;1.60;;
45842;SDS011;31563;51.744;8.252;2023-05-29T12:40:28;3.78;;;1.60;;
45842;SDS011;31563;51.744;8.252;2023-05-29T12:45:28;4.60;;;1.38;;
45842;SDS011;31563;51.744;8.252;2023-05-29T12:47:58;5.00;;;1.38;;
45842;SDS011;31563;51.744;8.252;2023-05-29T12:50:32;4.72;;;1.63;;
45842;SDS011;31563;51.744;8.252;2023-05-29T12:53:04;5.65;;;1.55;;
45842;SDS011;31563;51.744;8.252;2023-05-29T12:55:33;4.63;;;1.88;;
45842;SDS011;31563;51.744;8.252;2023-05-29T12:58:05;3.55;;;1.48;;
45842;SDS011;31563;51.744;8.252;2023-05-29T13:03:04;5.28;;;1.50;;
45842;SDS011;31563;51.744;8.252;2023-05-29T13:05:33;4.22;;;1.30;;
45842;SDS011;31563;51.744;8.252;2023-05-29T13:08:02;4.80;;;1.33;;
45842;SDS011;31563;51.744;8.252;2023-05-29T13:10:32;3.25;;;1.20;;
45842;SDS011;31563;51.744;8.252;2023-05-29T13:13:02;3.13;;;1.33;;
45842;SDS011;31563;51.744;8.252;2023-05-29T13:15:30;4.18;;;1.00;;
45842;SDS011;31563;51.744;8.252;2023-05-29T13:18:01;2.55;;;1.20;;
45842;SDS011;31563;51.744;8.252;2023-05-29T13:20:30;4.68;;;1.33;;
45842;SDS011;31563;51.744;8.252;2023-05-29T13:22:59;3.47;;;1.33;;
45842;SDS011;31563;51.744;8.252;2023-05-29T13:25:27;4.23;;;1.37;;
45842;SDS011;31563;51.744;8.252;2023-05-29T13:27:56;3.90;;;1.77;;
45842;SDS011;31563;51.744;8.252;2023-05-29T13:30:24;3.58;;;1.42;;
45842;SDS011;31563;51.744;8.252;2023-05-29T13:32:52;3.10;;;1.23;;
45842;SDS011;31563;51.744;8.252;2023-05-29T13:35:22;4.53;;;1.30;;
45842;SDS011;31563;51.744;8.252;2023-05-29T13:37:50;4.00;;;1.15;;
45842;SDS011;31563;51.744;8.252;2023-05-29T13:40:19;3.72;;;1.17;;
45842;SDS011;31563;51.744;8.252;2023-05-29T13:42:47;2.75;;;1.20;;
45842;SDS011;31563;51.744;8.252;2023-05-29T13:45:15;3.33;;;1.20;;
45842;SDS011;31563;51.744;8.252;2023-05-29T13:47:44;3.65;;;1.45;;
45842;SDS011;31563;51.744;8.252;2023-05-29T13:50:12;3.72;;;1.13;;
45842;SDS011;31563;51.744;8.252;2023-05-29T13:52:42;2.42;;;1.33;;
45842;SDS011;31563;51.744;8.252;2023-05-29T13:55:10;3.38;;;1.45;;
45842;SDS011;31563;51.744;8.252;2023-05-29T13:57:39;3.15;;;1.20;;
45842;SDS011;31563;51.744;8.252;2023-05-29T14:00:09;1.98;;;1.00;;
45842;SDS011;31563;51.744;8.252;2023-05-29T14:02:38;3.38;;;0.90;;
45842;SDS011;31563;51.744;8.252;2023-05-29T14:05:07;4.43;;;1.10;;
45842;SDS011;31563;51.744;8.252;2023-05-29T14:07:37;2.60;;;1.02;;
45842;SDS011;31563;51.744;8.252;2023-05-29T14:10:07;2.37;;;0.97;;
45842;SDS011;31563;51.744;8.252;2023-05-29T14:12:38;1.50;;;1.00;;
45842;SDS011;31563;51.744;8.252;2023-05-29T14:15:07;3.83;;;1.13;;
45842;SDS011;31563;51.744;8.252;2023-05-29T14:17:36;1.92;;;0.93;;
45842;SDS011;31563;51.744;8.252;2023-05-29T14:20:05;2.50;;;1.10;;
45842;SDS011;31563;51.744;8.252;2023-05-29T14:22:35;4.28;;;1.20;;
45842;SDS011;31563;51.744;8.252;2023-05-29T14:25:04;2.13;;;1.08;;
45842;SDS011;31563;51.744;8.252;2023-05-29T14:27:34;2.65;;;1.00;;
45842;SDS011;31563;51.744;8.252;2023-05-29T14:30:03;2.77;;;1.00;;
45842;SDS011;31563;51.744;8.252;2023-05-29T14:32:32;2.28;;;0.90;;
45842;SDS011;31563;51.744;8.252;2023-05-29T14:35:01;1.27;;;0.75;;
45842;SDS011;31563;51.744;8.252;2023-05-29T14:37:29;2.05;;;0.90;;
45842;SDS011;31563;51.744;8.252;2023-05-29T14:39:57;2.27;;;0.97;;
45842;SDS011;31563;51.744;8.252;2023-05-29T14:42:27;2.27;;;1.03;;
45842;SDS011;31563;51.744;8.252;2023-05-29T14:44:55;2.15;;;0.98;;
45842;SDS011;31563;51.744;8.252;2023-05-29T14:47:24;2.87;;;1.40;;
45842;SDS011;31563;51.744;8.252;2023-05-29T14:49:52;2.50;;;0.90;;
45842;SDS011;31563;51.744;8.252;2023-05-29T14:52:21;2.05;;;0.65;;
45842;SDS011;31563;51.744;8.252;2023-05-29T14:54:49;1.60;;;0.80;;
45842;SDS011;31563;51.744;8.252;2023-05-29T14:57:17;2.83;;;0.80;;
45842;SDS011;31563;51.744;8.252;2023-05-29T14:59:47;2.00;;;0.90;;
45842;SDS011;31563;51.744;8.252;2023-05-29T15:02:16;2.42;;;1.23;;
45842;SDS011;31563;51.744;8.252;2023-05-29T15:04:45;3.07;;;0.90;;
45842;SDS011;31563;51.744;8.252;2023-05-29T15:07:13;1.63;;;0.70;;
45842;SDS011;31563;51.744;8.252;2023-05-29T15:09:41;1.97;;;1.00;;
45842;SDS011;31563;51.744;8.252;2023-05-29T15:12:09;2.17;;;0.90;;
45842;SDS011;31563;51.744;8.252;2023-05-29T15:14:38;1.63;;;0.70;;
45842;SDS011;31563;51.744;8.252;2023-05-29T15:17:07;1.30;;;0.80;;
45842;SDS011;31563;51.744;8.252;2023-05-29T15:19:36;1.90;;;1.02;;
45842;SDS011;31563;51.744;8.252;2023-05-29T15:22:04;1.93;;;0.87;;
45842;SDS011;31563;51.744;8.252;2023-05-29T15:24:33;3.25;;;1.10;;
45842;SDS011;31563;51.744;8.252;2023-05-29T15:27:01;2.20;;;0.95;;
45842;SDS011;31563;51.744;8.252;2023-05-29T15:29:32;2.60;;;0.82;;
45842;SDS011;31563;51.744;8.252;2023-05-29T15:32:01;1.67;;;0.82;;
45842;SDS011;31563;51.744;8.252;2023-05-29T15:34:32;3.15;;;0.90;;
45842;SDS011;31563;51.744;8.252;2023-05-29T15:37:01;2.17;;;0.90;;